Time;durP1;ratioP1;P1;durP2;ratioP2;P2;SDS_P1;SDS_P2;PMS_P1;PMS_P2;Temp;Humidity;BMP_temperature;BMP_pressure;BME280_temperature;BME280_humidity;BME280_pressure;Samples;Min_cycle;Max_cycle;Signal;HPM_P1;HPM_P2
2021/04/27 00:02:01;;;;;;;1.58;1.50;;;9.10;99.90;;;;;;4937304;29;20187;-78
2021/04/27 00:04:26;;;;;;;0.28;0.28;;;9.10;99.90;;;;;;4937159;29;20171;-78
2021/04/27 00:06:52;;;;;;;0.45;0.45;;;9.10;99.90;;;;;;4936650;29;20278;-79
2021/04/27 00:09:18;;;;;;;5.05;1.20;;;8.80;99.90;;;;;;4937127;29;20180;-78
2021/04/27 00:11:43;;;;;;;0.90;0.90;;;8.80;99.90;;;;;;4937119;29;20191;-78
2021/04/27 00:14:09;;;;;;;5.18;1.65;;;8.70;99.90;;;;;;4937001;29;20699;-79
2021/04/27 00:16:35;;;;;;;0.43;0.43;;;8.80;99.90;;;;;;4936656;29;20172;-79
2021/04/27 00:19:00;;;;;;;0.80;0.60;;;8.70;99.90;;;;;;4936970;29;20178;-79
2021/04/27 00:21:27;;;;;;;1.38;0.93;;;8.70;99.90;;;;;;4936812;29;20210;-78
2021/04/27 00:23:53;;;;;;;0.38;0.38;;;8.50;99.90;;;;;;4936526;29;20182;-79
2021/04/27 00:26:18;;;;;;;0.38;0.38;;;8.60;99.90;;;;;;4935393;29;20223;-79
2021/04/27 00:28:44;;;;;;;0.65;0.55;;;8.70;99.90;;;;;;4936776;29;20733;-79
2021/04/27 00:31:09;;;;;;;0.93;0.90;;;9.00;99.90;;;;;;4935339;29;20199;-79
2021/04/27 00:33:35;;;;;;;0.85;0.80;;;9.10;99.90;;;;;;4936299;29;20258;-79
2021/04/27 00:36:01;;;;;;;0.65;0.65;;;9.10;99.90;;;;;;4936634;29;20533;-79
2021/04/27 00:38:27;;;;;;;0.93;0.93;;;9.10;99.90;;;;;;4936685;29;20166;-79
2021/04/27 00:40:53;;;;;;;0.85;0.85;;;9.00;99.90;;;;;;4936409;29;20199;-79
2021/04/27 00:43:18;;;;;;;0.55;0.55;;;8.90;99.90;;;;;;4935007;29;20171;-79
2021/04/27 00:45:45;;;;;;;0.40;0.40;;;8.80;99.90;;;;;;4936483;29;20500;-79
2021/04/27 00:48:11;;;;;;;0.47;0.47;;;8.70;99.90;;;;;;4935333;29;20259;-79
2021/04/27 00:50:39;;;;;;;0.30;0.30;;;8.60;99.90;;;;;;4936074;29;20187;-79
2021/04/27 00:53:05;;;;;;;1.02;0.88;;;8.60;99.90;;;;;;4936380;29;20254;-79
2021/04/27 00:55:32;;;;;;;0.70;0.70;;;8.60;99.90;;;;;;4936510;29;20303;-79
2021/04/27 00:58:00;;;;;;;0.50;0.47;;;8.70;99.90;;;;;;4935176;29;20171;-79
2021/04/27 01:00:29;;;;;;;2.13;0.77;;;8.80;99.90;;;;;;4935905;29;20199;-79
2021/04/27 01:02:55;;;;;;;0.90;0.90;;;8.60;99.90;;;;;;4936251;29;20176;-78
2021/04/27 01:05:24;;;;;;;1.52;0.82;;;8.50;99.90;;;;;;4950985;28;20182;-78
2021/04/27 01:08:12;;;;;;;0.65;0.65;;;8.50;99.90;;;;;;4934746;29;20571;-79
2021/04/27 01:10:45;;;;;;;0.43;0.43;;;8.30;99.90;;;;;;4935794;29;20198;-78
2021/04/27 01:13:25;;;;;;;4.00;1.05;;;8.30;99.90;;;;;;4936112;29;20167;-79
2021/04/27 01:15:51;;;;;;;3.25;1.23;;;8.30;99.90;;;;;;4934697;29;20179;-79
2021/04/27 01:18:20;;;;;;;0.60;0.60;;;8.40;99.90;;;;;;4934458;29;20310;-78
2021/04/27 01:20:48;;;;;;;0.50;0.50;;;8.60;99.90;;;;;;4935889;29;20286;-79
2021/04/27 01:23:22;;;;;;;0.45;0.45;;;8.50;99.90;;;;;;4936022;29;20267;-79
2021/04/27 01:26:15;;;;;;;3.10;2.50;;;8.70;99.90;;;;;;4935683;29;20218;-78
2021/04/27 01:28:41;;;;;;;0.90;0.90;;;8.50;99.90;;;;;;4934370;29;20690;-79
2021/04/27 01:31:08;;;;;;;28.58;1.20;;;8.40;99.90;;;;;;4935771;29;20180;-79
2021/04/27 01:33:34;;;;;;;0.43;0.43;;;8.40;99.90;;;;;;4935837;29;20635;-78
2021/04/27 01:36:02;;;;;;;3.13;1.30;;;8.30;99.90;;;;;;4935521;29;20198;-78
2021/04/27 01:38:29;;;;;;;0.63;0.63;;;8.20;99.90;;;;;;4935824;29;20518;-79
2021/04/27 01:40:55;;;;;;;4.13;0.85;;;8.10;99.90;;;;;;4935664;29;20190;-78
2021/04/27 01:43:22;;;;;;;3.03;1.40;;;8.10;99.90;;;;;;4935647;29;20196;-78
2021/04/27 01:45:52;;;;;;;0.25;0.25;;;8.00;99.90;;;;;;4934035;29;20322;-79
2021/04/27 01:48:18;;;;;;;0.73;0.70;;;8.20;99.90;;;;;;4934487;29;20289;-78
2021/04/27 01:50:44;;;;;;;0.30;0.30;;;8.00;99.90;;;;;;4937262;29;20252;-78
2021/04/27 01:53:14;;;;;;;0.30;0.30;;;7.90;99.90;;;;;;4939574;29;20661;-78
2021/04/27 01:55:41;;;;;;;1.52;1.42;;;7.80;99.90;;;;;;4938068;29;20195;-77
2021/04/27 01:58:07;;;;;;;1.52;1.02;;;7.90;99.90;;;;;;4938412;29;20167;-78
2021/04/27 02:00:33;;;;;;;0.45;0.45;;;7.90;99.90;;;;;;4939469;29;20234;-78
2021/04/27 02:02:59;;;;;;;0.60;0.60;;;7.90;99.90;;;;;;4939149;29;20210;-78
2021/04/27 02:05:25;;;;;;;3.13;1.33;;;7.90;99.90;;;;;;4954597;28;20258;-78
2021/04/27 02:07:50;;;;;;;0.20;0.20;;;7.90;99.90;;;;;;4939306;29;20210;-78
2021/04/27 02:10:16;;;;;;;0.60;0.60;;;7.90;99.90;;;;;;4939188;29;20191;-78
2021/04/27 02:12:48;;;;;;;1.48;1.38;;;8.10;99.90;;;;;;4937674;29;20598;-78
2021/04/27 02:15:16;;;;;;;0.52;0.52;;;8.10;99.90;;;;;;4939319;29;20159;-77
2021/04/27 02:18:03;;;;;;;0.30;0.30;;;8.20;99.90;;;;;;4939209;29;20499;-78
2021/04/27 02:20:30;;;;;;;0.70;0.70;;;8.50;99.90;;;;;;4938963;29;20190;-78
2021/04/27 02:22:59;;;;;;;0.50;0.50;;;8.30;99.90;;;;;;4938968;29;20171;-78
2021/04/27 02:25:25;;;;;;;2.00;1.55;;;8.10;99.90;;;;;;4939203;29;20172;-78
2021/04/27 02:27:52;;;;;;;0.95;0.95;;;7.90;99.90;;;;;;4938775;29;20700;-78
2021/04/27 02:30:20;;;;;;;2.50;2.15;;;7.70;99.90;;;;;;4937245;29;20195;-78
2021/04/27 02:32:46;;;;;;;0.30;0.30;;;7.90;99.90;;;;;;4938763;29;20175;-78
2021/04/27 02:35:14;;;;;;;0.55;0.55;;;7.80;99.90;;;;;;4939040;29;20160;-78
2021/04/27 02:37:42;;;;;;;0.70;0.70;;;7.70;99.90;;;;;;4938754;29;20247;-78
2021/04/27 02:40:10;;;;;;;2.97;1.67;;;7.50;99.90;;;;;;4938310;29;20183;-78
2021/04/27 02:42:37;;;;;;;0.57;0.57;;;7.50;99.90;;;;;;4938706;29;20207;-78
2021/04/27 02:45:04;;;;;;;0.55;0.55;;;7.60;99.90;;;;;;4938829;29;20615;-78
2021/04/27 02:47:30;;;;;;;0.50;0.50;;;7.80;99.90;;;;;;4938629;29;20693;-78
2021/04/27 02:49:56;;;;;;;7.57;0.43;;;7.90;99.90;;;;;;4938346;29;20261;-77
2021/04/27 02:52:21;;;;;;;0.45;0.45;;;7.90;99.90;;;;;;4938775;29;20155;-78
2021/04/27 02:54:47;;;;;;;12.45;2.45;;;7.80;99.90;;;;;;4938637;29;20155;-78
2021/04/27 02:57:13;;;;;;;0.90;0.60;;;7.70;99.90;;;;;;4938246;29;20574;-78
2021/04/27 02:59:38;;;;;;;0.30;0.30;;;7.70;99.90;;;;;;4938543;29;20223;-78
2021/04/27 03:02:04;;;;;;;0.75;0.73;;;7.90;99.90;;;;;;4937253;29;20195;-78
2021/04/27 03:04:29;;;;;;;1.35;0.52;;;7.80;99.90;;;;;;4938511;29;20171;-78
2021/04/27 03:06:55;;;;;;;0.65;0.50;;;7.70;99.90;;;;;;4938035;29;20549;-78
2021/04/27 03:09:20;;;;;;;5.47;1.25;;;7.60;99.90;;;;;;4938245;29;20222;-78
2021/04/27 03:11:46;;;;;;;0.60;0.60;;;7.60;99.90;;;;;;4938305;29;20237;-78
2021/04/27 03:14:12;;;;;;;0.80;0.77;;;7.70;99.90;;;;;;4938058;29;20171;-78
2021/04/27 03:16:37;;;;;;;0.57;0.57;;;7.80;99.90;;;;;;4936609;29;20270;-78
2021/04/27 03:19:03;;;;;;;0.30;0.30;;;7.60;99.90;;;;;;4937998;29;20164;-78
2021/04/27 03:21:29;;;;;;;0.60;0.60;;;7.50;99.90;;;;;;4938067;29;20658;-78
2021/04/27 03:23:55;;;;;;;0.77;0.77;;;7.50;99.90;;;;;;4936692;29;20181;-78
2021/04/27 03:26:21;;;;;;;2.15;1.23;;;7.50;99.90;;;;;;4937751;29;20309;-78
2021/04/27 03:28:47;;;;;;;2.28;0.55;;;7.40;99.90;;;;;;4937735;29;20239;-78
2021/04/27 03:31:13;;;;;;;1.70;1.10;;;7.50;99.90;;;;;;4952581;28;20727;-77
2021/04/27 03:33:38;;;;;;;0.50;0.50;;;7.50;99.90;;;;;;4937380;29;20175;-78
2021/04/27 03:36:04;;;;;;;1.55;1.33;;;7.60;99.90;;;;;;4937903;29;20169;-78
2021/04/27 03:38:30;;;;;;;1.02;1.02;;;7.60;99.90;;;;;;4937890;29;20619;-78
2021/04/27 03:40:56;;;;;;;0.50;0.50;;;7.60;99.90;;;;;;4937588;29;20195;-78
2021/04/27 03:43:22;;;;;;;1.50;1.40;;;7.70;99.90;;;;;;4937325;29;20175;-78
2021/04/27 03:45:52;;;;;;;0.63;0.63;;;7.70;99.90;;;;;;4937544;29;20687;-78
2021/04/27 03:48:20;;;;;;;0.50;0.50;;;7.90;99.90;;;;;;4937524;29;20203;-79
2021/04/27 03:50:46;;;;;;;0.63;0.63;;;7.90;99.90;;;;;;4937329;29;20211;-78
2021/04/27 03:53:12;;;;;;;0.57;0.57;;;7.90;99.90;;;;;;4937507;29;20179;-78
2021/04/27 03:55:39;;;;;;;0.50;0.50;;;7.80;99.90;;;;;;4937266;29;20182;-78
2021/04/27 03:58:04;;;;;;;1.33;0.75;;;7.70;99.90;;;;;;4937307;29;20167;-79
2021/04/27 04:00:30;;;;;;;0.43;0.43;;;7.60;99.90;;;;;;4936845;29;20296;-78
2021/04/27 04:02:56;;;;;;;1.15;1.13;;;7.60;99.90;;;;;;4937175;29;20183;-78
2021/04/27 04:05:22;;;;;;;0.65;0.65;;;7.40;99.90;;;;;;4937138;29;20174;-78
2021/04/27 04:07:47;;;;;;;0.63;0.63;;;7.40;99.90;;;;;;4937597;29;20207;-79
2021/04/27 04:10:17;;;;;;;0.82;0.82;;;7.40;99.90;;;;;;4936616;29;20179;-79
2021/04/27 04:12:44;;;;;;;0.93;0.93;;;7.70;99.90;;;;;;4936814;29;20167;-77
2021/04/27 04:15:13;;;;;;;0.50;0.50;;;7.90;99.90;;;;;;4935856;29;20175;-77
2021/04/27 04:17:40;;;;;;;0.32;0.32;;;7.60;99.90;;;;;;4936863;29;20182;-78
2021/04/27 04:20:10;;;;;;;0.40;0.40;;;7.50;99.90;;;;;;4936606;29;20179;-79
2021/04/27 04:22:36;;;;;;;0.30;0.30;;;7.50;99.90;;;;;;4936779;29;20660;-77
2021/04/27 04:25:04;;;;;;;1.65;1.55;;;7.50;99.90;;;;;;4937187;29;20162;-78
2021/04/27 04:27:29;;;;;;;0.50;0.50;;;7.30;99.90;;;;;;4936111;29;20227;-78
2021/04/27 04:29:55;;;;;;;1.50;1.40;;;7.30;99.90;;;;;;4936613;29;20250;-78
2021/04/27 04:32:20;;;;;;;2.63;1.40;;;7.20;99.90;;;;;;4936829;29;20171;-79
2021/04/27 04:34:46;;;;;;;13.88;1.77;;;7.30;99.90;;;;;;4936724;29;20170;-77
2021/04/27 04:37:12;;;;;;;2.35;2.15;;;7.40;99.90;;;;;;4936284;29;20168;-77
2021/04/27 04:39:38;;;;;;;0.30;0.30;;;7.40;99.90;;;;;;4936584;29;20250;-77
2021/04/27 04:42:03;;;;;;;1.38;1.27;;;7.40;99.90;;;;;;4936308;29;20195;-78
2021/04/27 04:44:29;;;;;;;3.80;2.58;;;7.50;99.90;;;;;;4951077;28;20197;-78
2021/04/27 04:46:56;;;;;;;0.63;0.63;;;7.50;99.90;;;;;;4935993;29;20250;-78
2021/04/27 04:49:24;;;;;;;0.30;0.30;;;7.80;99.90;;;;;;4935180;29;20218;-78
2021/04/27 04:51:51;;;;;;;0.50;0.50;;;7.80;99.90;;;;;;4936224;29;20270;-78
2021/04/27 04:54:16;;;;;;;3.40;1.52;;;7.90;99.90;;;;;;4936310;29;20219;-78
2021/04/27 04:56:42;;;;;;;0.82;0.82;;;7.70;99.90;;;;;;4935765;29;20525;-77
2021/04/27 04:59:07;;;;;;;0.60;0.60;;;7.70;99.90;;;;;;4936115;29;20667;-78
2021/04/27 05:01:33;;;;;;;4.03;1.23;;;7.80;99.90;;;;;;4936188;29;20211;-78
2021/04/27 05:03:59;;;;;;;1.17;0.93;;;7.60;99.90;;;;;;4935823;29;20178;-78
2021/04/27 05:06:25;;;;;;;0.70;0.70;;;7.40;99.90;;;;;;4936021;29;20171;-78
2021/04/27 05:08:52;;;;;;;0.52;0.52;;;7.40;99.90;;;;;;4935799;29;20203;-79
2021/04/27 05:11:18;;;;;;;2.40;1.70;;;7.40;99.90;;;;;;4926705;29;20210;-79
2021/04/27 05:13:44;;;;;;;5.78;1.35;;;7.60;99.90;;;;;;4925861;29;20179;-79
2021/04/27 05:16:10;;;;;;;0.90;0.90;;;7.70;99.90;;;;;;4935802;29;20179;-79
2021/04/27 05:18:37;;;;;;;0.50;0.50;;;7.70;99.90;;;;;;4935883;29;20623;-79
2021/04/27 05:21:03;;;;;;;1.27;1.27;;;7.50;99.90;;;;;;4934737;29;20206;-78
2021/04/27 05:23:29;;;;;;;0.68;0.68;;;7.40;99.90;;;;;;4927862;29;20213;-77
2021/04/27 05:25:55;;;;;;;1.27;1.15;;;7.40;99.90;;;;;;4925774;29;20230;-77
2021/04/27 05:28:20;;;;;;;0.70;0.57;;;7.50;99.90;;;;;;4950334;28;20206;-78
2021/04/27 05:30:46;;;;;;;0.43;0.43;;;7.60;99.90;;;;;;4918862;29;20671;-78
2021/04/27 05:33:12;;;;;;;0.93;0.93;;;7.80;99.90;;;;;;4921056;29;20214;-78
2021/04/27 05:35:40;;;;;;;0.80;0.80;;;7.80;99.90;;;;;;4935533;29;20206;-78
2021/04/27 05:38:06;;;;;;;5.60;2.47;;;7.70;99.90;;;;;;4935484;29;20147;-78
2021/04/27 05:40:32;;;;;;;0.50;0.50;;;7.80;99.90;;;;;;4930087;29;20287;-78
2021/04/27 05:42:57;;;;;;;0.52;0.45;;;7.90;99.90;;;;;;4919146;29;20175;-78
2021/04/27 05:45:23;;;;;;;0.55;0.55;;;8.00;99.90;;;;;;4935477;29;20257;-78
2021/04/27 05:47:48;;;;;;;0.50;0.50;;;8.00;99.90;;;;;;4935199;29;20202;-78
2021/04/27 05:50:14;;;;;;;0.50;0.50;;;7.80;99.90;;;;;;4935040;29;20195;-77
2021/04/27 05:52:40;;;;;;;1.25;1.00;;;8.00;99.90;;;;;;4915560;29;20187;-78
2021/04/27 05:55:05;;;;;;;0.25;0.25;;;8.20;99.90;;;;;;4933623;29;20187;-78
2021/04/27 05:57:31;;;;;;;1.65;1.55;;;8.50;99.90;;;;;;4933659;29;20264;-77
2021/04/27 05:59:57;;;;;;;1.40;1.30;;;8.50;99.90;;;;;;4934770;29;20179;-76
2021/04/27 06:02:22;;;;;;;1.00;1.00;;;8.50;99.90;;;;;;4930394;29;20190;-77
2021/04/27 06:04:48;;;;;;;1.33;1.25;;;8.40;99.90;;;;;;4918282;29;20183;-78
2021/04/27 06:07:13;;;;;;;2.28;1.10;;;8.30;99.90;;;;;;4934743;29;20655;-78
2021/04/27 06:09:39;;;;;;;0.82;0.70;;;8.30;99.90;;;;;;4935094;29;20184;-77
2021/04/27 06:12:05;;;;;;;1.77;0.93;;;8.30;99.90;;;;;;4922139;29;20566;-79
2021/04/27 06:14:31;;;;;;;0.73;0.73;;;8.30;99.90;;;;;;4931160;29;20727;-78
2021/04/27 06:16:56;;;;;;;1.17;1.17;;;8.50;99.90;;;;;;4934700;29;20180;-78
2021/04/27 06:19:22;;;;;;;0.88;0.88;;;8.50;99.90;;;;;;4934923;29;20538;-78
2021/04/27 06:21:48;;;;;;;0.65;0.65;;;8.50;99.90;;;;;;4932023;29;20285;-77
2021/04/27 06:24:14;;;;;;;1.85;1.75;;;8.70;99.90;;;;;;4921606;29;20200;-77
2021/04/27 06:26:40;;;;;;;0.70;0.70;;;8.70;99.90;;;;;;4930944;29;20242;-77
2021/04/27 06:29:06;;;;;;;1.17;1.17;;;8.70;99.90;;;;;;4934680;29;20164;-77
2021/04/27 06:31:32;;;;;;;0.80;0.77;;;8.80;99.90;;;;;;4931342;29;20195;-77
2021/04/27 06:33:58;;;;;;;1.00;0.90;;;8.90;99.90;;;;;;4945672;29;20232;-77
2021/04/27 06:36:24;;;;;;;0.52;0.52;;;9.00;99.90;;;;;;4940844;28;20175;-76
2021/04/27 06:38:49;;;;;;;6.30;0.98;;;8.90;99.90;;;;;;4938582;29;20635;-78
2021/04/27 06:41:17;;;;;;;6.43;1.58;;;9.10;99.90;;;;;;4937144;29;20195;-78
2021/04/27 06:43:42;;;;;;;1.10;1.10;;;9.40;99.90;;;;;;4936518;29;20271;-77
2021/04/27 06:46:08;;;;;;;1.48;1.27;;;9.80;99.90;;;;;;4937818;29;20185;-80
2021/04/27 06:48:35;;;;;;;1.38;1.27;;;10.10;99.90;;;;;;4937664;29;20215;-78
2021/04/27 06:51:05;;;;;;;1.88;1.75;;;10.00;99.90;;;;;;4950503;28;20203;-79
2021/04/27 06:53:31;;;;;;;1.00;0.88;;;10.10;99.90;;;;;;4926138;29;20270;-79
2021/04/27 06:55:57;;;;;;;0.50;0.50;;;10.00;99.90;;;;;;4938015;29;20318;-76
2021/04/27 06:58:23;;;;;;;3.13;1.45;;;9.90;99.90;;;;;;4938478;29;20163;-77
2021/04/27 07:00:48;;;;;;;1.92;1.75;;;9.90;99.90;;;;;;4936092;29;20206;-77
2021/04/27 07:03:14;;;;;;;0.85;0.85;;;10.00;99.90;;;;;;4931931;29;20182;-77
2021/04/27 07:05:42;;;;;;;23.48;1.92;;;9.80;99.90;;;;;;4937862;29;20179;-77
2021/04/27 07:08:07;;;;;;;1.88;1.67;;;10.10;99.90;;;;;;4938308;29;20730;-76
2021/04/27 07:10:33;;;;;;;0.70;0.70;;;10.20;99.90;;;;;;4936887;29;20279;-78
2021/04/27 07:12:59;;;;;;;2.55;1.27;;;10.30;99.90;;;;;;4936067;29;21000;-77
2021/04/27 07:15:25;;;;;;;1.52;1.42;;;10.60;99.90;;;;;;4942735;29;20635;-77
2021/04/27 07:17:50;;;;;;;1.08;0.98;;;10.30;99.90;;;;;;4943126;29;20254;-77
2021/04/27 07:20:16;;;;;;;3.58;0.95;;;10.40;99.90;;;;;;4946076;28;20199;-76
2021/04/27 07:22:42;;;;;;;3.22;2.22;;;10.20;99.90;;;;;;4937424;29;20201;-76
2021/04/27 07:25:09;;;;;;;0.88;0.88;;;10.30;99.90;;;;;;4937721;29;20584;-78
2021/04/27 07:27:34;;;;;;;1.40;1.30;;;10.50;99.90;;;;;;4938027;29;20222;-76
2021/04/27 07:30:00;;;;;;;1.02;1.02;;;10.60;99.90;;;;;;4937416;29;20246;-77
2021/04/27 07:32:26;;;;;;;0.55;0.50;;;10.70;99.90;;;;;;4928380;28;20179;-76
2021/04/27 07:34:52;;;;;;;0.95;0.95;;;11.00;99.90;;;;;;4941598;29;20185;-76
2021/04/27 07:37:18;;;;;;;1.35;1.20;;;11.20;99.90;;;;;;4954196;28;20183;-77
2021/04/27 07:39:44;;;;;;;3.60;1.25;;;11.40;99.90;;;;;;4949373;28;20182;-79
2021/04/27 07:42:11;;;;;;;0.80;0.80;;;11.70;99.90;;;;;;4932607;29;20183;-78
2021/04/27 07:44:36;;;;;;;1.00;1.00;;;12.00;99.90;;;;;;4933078;29;20170;-78
2021/04/27 07:47:02;;;;;;;0.77;0.77;;;12.00;99.90;;;;;;4942137;28;20206;-77
2021/04/27 07:49:28;;;;;;;2.08;1.25;;;12.20;99.90;;;;;;4951626;28;20194;-78
2021/04/27 07:51:53;;;;;;;1.92;0.93;;;12.10;99.90;;;;;;4943145;28;20190;-79
2021/04/27 07:54:19;;;;;;;13.82;1.08;;;12.20;99.90;;;;;;4937081;29;20194;-78
2021/04/27 07:56:45;;;;;;;2.97;1.08;;;12.40;99.90;;;;;;4954635;29;20229;-78
2021/04/27 07:59:12;;;;;;;2.95;1.75;;;12.30;99.90;;;;;;4954104;28;20217;-81
2021/04/27 08:01:38;;;;;;;0.85;0.85;;;12.50;99.90;;;;;;4955786;28;20293;-81
2021/04/27 08:04:04;;;;;;;1.15;1.15;;;12.40;99.90;;;;;;4955828;28;20314;-78
2021/04/27 08:06:30;;;;;;;1.90;1.40;;;12.40;99.90;;;;;;4955871;28;20614;-79
2021/04/27 08:08:55;;;;;;;1.52;1.02;;;12.60;99.90;;;;;;4955763;28;20273;-78
2021/04/27 08:11:21;;;;;;;0.80;0.80;;;12.70;99.90;;;;;;4955311;28;20791;-79
2021/04/27 08:13:47;;;;;;;2.50;2.08;;;13.10;99.90;;;;;;4954716;28;20178;-77
2021/04/27 08:16:13;;;;;;;0.77;0.77;;;13.20;99.90;;;;;;4956088;28;20167;-78
2021/04/27 08:18:39;;;;;;;1.33;0.90;;;13.50;99.90;;;;;;4956130;28;20249;-79
2021/04/27 08:21:13;;;;;;;1.55;1.45;;;13.50;99.90;;;;;;4955795;28;20199;-76
2021/04/27 08:23:40;;;;;;;1.88;0.80;;;13.70;99.90;;;;;;4955253;28;20170;-77
2021/04/27 08:26:09;;;;;;;1.73;1.58;;;13.90;99.90;;;;;;4955564;29;20209;-77
2021/04/27 08:28:34;;;;;;;3.58;1.77;;;13.60;99.90;;;;;;4955389;28;20678;-77
2021/04/27 08:31:00;;;;;;;1.83;1.67;;;13.90;99.90;;;;;;4950320;28;20241;-77
2021/04/27 08:33:26;;;;;;;5.50;1.45;;;14.10;99.90;;;;;;4954303;28;20258;-76
2021/04/27 08:35:52;;;;;;;2.38;1.42;;;14.20;99.60;;;;;;4955317;28;20182;-77
2021/04/27 08:38:18;;;;;;;3.50;1.55;;;14.50;99.10;;;;;;4955331;28;20167;-78
2021/04/27 08:40:45;;;;;;;3.08;1.65;;;14.90;98.70;;;;;;4954593;28;20220;-77
2021/04/27 08:43:13;;;;;;;2.63;2.08;;;15.00;96.80;;;;;;4954926;28;20171;-77
2021/04/27 08:45:39;;;;;;;0.70;0.70;;;14.90;97.10;;;;;;4955090;28;20681;-77
2021/04/27 08:48:09;;;;;;;1.23;1.20;;;14.80;96.90;;;;;;4955504;28;20225;-77
2021/04/27 08:50:35;;;;;;;4.82;2.08;;;14.90;97.00;;;;;;4955001;28;20414;-78
2021/04/27 08:53:02;;;;;;;0.65;0.65;;;15.00;96.20;;;;;;4954030;28;20270;-77
2021/04/27 08:55:27;;;;;;;6.35;1.27;;;15.00;95.30;;;;;;4954932;28;20159;-77
2021/04/27 08:57:53;;;;;;;1.83;1.73;;;14.90;95.40;;;;;;4954614;28;20209;-77
2021/04/27 09:00:20;;;;;;;0.82;0.80;;;14.60;95.20;;;;;;4953469;28;20202;-78
2021/04/27 09:02:54;;;;;;;0.95;0.95;;;14.70;94.20;;;;;;4954678;28;20178;-77
2021/04/27 09:05:23;;;;;;;4.03;2.15;;;14.60;94.80;;;;;;4953731;28;20201;-77
2021/04/27 09:08:09;;;;;;;0.82;0.82;;;14.60;94.90;;;;;;4951567;28;20210;-78
2021/04/27 09:10:43;;;;;;;9.52;2.28;;;14.50;95.10;;;;;;4954218;28;20673;-79
2021/04/27 09:13:16;;;;;;;1.25;1.15;;;14.50;95.90;;;;;;4956391;28;20178;-78
2021/04/27 09:15:44;;;;;;;2.15;1.48;;;14.30;95.80;;;;;;4957935;28;20524;-79
2021/04/27 09:18:29;;;;;;;1.02;0.98;;;14.30;95.60;;;;;;4958052;28;20630;-79
2021/04/27 09:21:07;;;;;;;0.50;0.50;;;14.30;96.10;;;;;;4953153;28;20195;-80
2021/04/27 09:23:35;;;;;;;2.83;2.60;;;14.00;96.20;;;;;;4953345;28;20167;-79
2021/04/27 09:26:10;;;;;;;4.68;2.33;;;14.20;96.50;;;;;;4950152;28;20211;-78
2021/04/27 09:28:38;;;;;;;0.52;0.52;;;14.20;96.50;;;;;;4943581;28;20194;-78
2021/04/27 09:31:21;;;;;;;2.10;2.00;;;14.40;96.10;;;;;;4946891;28;20198;-80
2021/04/27 09:33:47;;;;;;;0.77;0.77;;;14.30;97.20;;;;;;4960674;28;20222;-79
2021/04/27 09:36:24;;;;;;;1.33;1.23;;;14.40;97.00;;;;;;4944924;28;20320;-79
2021/04/27 09:38:54;;;;;;;2.88;2.00;;;14.60;96.20;;;;;;4949793;28;20177;-79
2021/04/27 09:41:26;;;;;;;5.63;2.17;;;14.50;95.80;;;;;;4935479;29;20191;-78
2021/04/27 09:43:55;;;;;;;1.45;1.35;;;14.60;95.90;;;;;;4951013;29;20223;-78
2021/04/27 09:46:23;;;;;;;3.33;2.38;;;14.40;96.50;;;;;;4954369;28;20182;-79
2021/04/27 09:48:58;;;;;;;6.20;2.25;;;14.60;95.90;;;;;;4953105;28;20590;-78
2021/04/27 09:51:29;;;;;;;0.60;0.60;;;14.60;97.10;;;;;;4954286;28;20182;-79
2021/04/27 09:53:56;;;;;;;2.55;2.00;;;14.70;95.60;;;;;;4954230;28;20523;-79
2021/04/27 09:56:38;;;;;;;1.27;1.02;;;14.80;95.50;;;;;;4954217;28;20182;-79
2021/04/27 09:59:14;;;;;;;6.93;1.60;;;14.90;95.60;;;;;;4954051;28;20167;-78
2021/04/27 10:01:45;;;;;;;1.45;1.30;;;14.80;95.40;;;;;;4952593;28;20194;-79
2021/04/27 10:04:11;;;;;;;1.05;1.00;;;15.00;95.90;;;;;;4954268;28;20167;-79
2021/04/27 10:06:40;;;;;;;1.13;1.10;;;15.30;95.40;;;;;;4953250;28;20205;-79
2021/04/27 10:09:09;;;;;;;1.73;1.63;;;15.40;94.70;;;;;;4954048;28;20244;-79
2021/04/27 10:11:38;;;;;;;1.65;1.27;;;15.30;95.10;;;;;;4953950;28;20190;-79
2021/04/27 10:14:06;;;;;;;1.00;1.00;;;15.50;94.80;;;;;;4956742;28;20253;-78
2021/04/27 10:16:33;;;;;;;1.60;1.50;;;15.50;94.20;;;;;;4956854;28;20174;-77
2021/04/27 10:18:59;;;;;;;1.60;1.05;;;15.70;93.90;;;;;;4956923;28;20202;-77
2021/04/27 10:21:26;;;;;;;0.70;0.70;;;15.70;92.60;;;;;;4957381;28;20225;-77
2021/04/27 10:24:03;;;;;;;4.65;1.83;;;15.70;92.00;;;;;;4957592;28;20179;-78
2021/04/27 10:26:32;;;;;;;4.10;0.77;;;15.30;91.90;;;;;;4957224;28;20226;-78
2021/04/27 10:29:08;;;;;;;2.00;1.70;;;15.30;91.60;;;;;;4954973;28;20249;-78
2021/04/27 10:31:37;;;;;;;1.33;1.20;;;15.10;91.70;;;;;;4957410;28;20657;-78
2021/04/27 10:34:07;;;;;;;7.53;1.50;;;15.10;92.30;;;;;;4957688;28;20241;-79
2021/04/27 10:36:36;;;;;;;2.10;1.08;;;15.40;92.00;;;;;;4957377;28;20193;-76
2021/04/27 10:39:11;;;;;;;2.05;0.98;;;15.50;92.40;;;;;;4957085;28;20535;-76
2021/04/27 10:41:56;;;;;;;2.78;1.95;;;15.70;91.80;;;;;;4957878;28;20182;-78
2021/04/27 10:44:52;;;;;;;0.77;0.77;;;15.50;91.20;;;;;;4956530;28;20653;-79
2021/04/27 10:47:22;;;;;;;5.15;1.52;;;15.70;91.10;;;;;;4956827;28;20269;-78
2021/04/27 10:49:48;;;;;;;4.63;1.52;;;16.00;90.70;;;;;;4957359;28;20179;-77
2021/04/27 10:52:33;;;;;;;0.50;0.50;;;16.10;88.30;;;;;;4955351;28;20221;-76
2021/04/27 10:55:24;;;;;;;0.55;0.55;;;16.00;88.10;;;;;;4957528;28;20170;-80
2021/04/27 10:57:50;;;;;;;2.08;1.02;;;16.00;88.40;;;;;;4955759;28;20637;-78
2021/04/27 11:00:33;;;;;;;1.13;1.05;;;15.90;89.10;;;;;;4955846;28;20190;-77
2021/04/27 11:03:11;;;;;;;3.38;1.52;;;15.90;88.50;;;;;;4955821;28;20179;-79
2021/04/27 11:05:59;;;;;;;0.90;0.90;;;16.00;87.10;;;;;;4954814;28;20182;-78
2021/04/27 11:09:18;;;;;;;1.08;1.08;;;16.20;86.50;;;;;;4955606;28;20765;-78
2021/04/27 11:11:43;;;;;;;5.20;1.48;;;16.00;85.70;;;;;;4955806;28;20206;-79
2021/04/27 11:14:11;;;;;;;5.07;1.38;;;16.20;85.70;;;;;;4956554;28;20579;-76
2021/04/27 11:16:38;;;;;;;14.82;2.88;;;16.10;84.30;;;;;;4956957;28;20177;-78
2021/04/27 11:19:10;;;;;;;1.73;1.42;;;16.10;83.70;;;;;;4956926;28;20173;-78
2021/04/27 11:21:36;;;;;;;0.57;0.57;;;16.30;82.90;;;;;;4955761;28;20198;-76
2021/04/27 11:24:09;;;;;;;2.25;1.25;;;16.20;82.50;;;;;;4955773;28;20241;-78
2021/04/27 11:26:35;;;;;;;1.00;0.95;;;16.20;83.00;;;;;;4957043;28;20229;-78
2021/04/27 11:29:19;;;;;;;0.98;0.77;;;16.30;81.30;;;;;;4956974;28;20198;-77
2021/04/27 11:32:07;;;;;;;1.90;1.15;;;16.40;83.00;;;;;;4956657;28;20240;-79
2021/04/27 11:34:54;;;;;;;1.85;1.42;;;16.60;83.30;;;;;;4956741;28;20249;-78
2021/04/27 11:37:20;;;;;;;1.25;0.90;;;16.70;82.40;;;;;;4957204;28;20179;-78
2021/04/27 11:39:47;;;;;;;0.80;0.80;;;16.70;82.80;;;;;;4956666;28;20165;-77
2021/04/27 11:42:21;;;;;;;4.72;1.13;;;16.70;82.40;;;;;;4956217;28;20210;-78
2021/04/27 11:44:47;;;;;;;1.30;1.20;;;16.80;82.00;;;;;;4955925;28;20267;-78
2021/04/27 11:47:15;;;;;;;1.42;1.33;;;16.80;82.60;;;;;;4956505;28;20202;-77
2021/04/27 11:50:07;;;;;;;1.05;0.98;;;16.90;80.10;;;;;;4956625;28;20179;-79
2021/04/27 11:52:45;;;;;;;0.55;0.55;;;16.80;80.80;;;;;;4956809;28;20233;-78
2021/04/27 11:55:35;;;;;;;5.60;2.28;;;17.00;79.70;;;;;;4956757;28;20166;-78
2021/04/27 11:58:20;;;;;;;0.95;0.90;;;17.00;80.30;;;;;;4956543;28;20607;-79
2021/04/27 12:00:49;;;;;;;0.77;0.65;;;17.10;79.40;;;;;;4956018;28;20193;-80
2021/04/27 12:03:57;;;;;;;0.63;0.63;;;17.10;78.50;;;;;;4956459;28;20167;-78
2021/04/27 12:06:23;;;;;;;2.72;1.02;;;17.00;77.80;;;;;;4953839;29;20190;-79
2021/04/27 12:08:51;;;;;;;0.82;0.82;;;16.70;77.60;;;;;;4953878;29;20210;-78
2021/04/27 12:11:29;;;;;;;2.28;1.48;;;16.60;78.80;;;;;;4944586;29;20198;-79
2021/04/27 12:14:11;;;;;;;1.70;1.60;;;16.70;78.80;;;;;;4956033;28;20202;-79
2021/04/27 12:16:39;;;;;;;0.70;0.70;;;16.60;80.80;;;;;;4956235;28;20242;-79
2021/04/27 12:19:09;;;;;;;0.88;0.88;;;16.70;78.80;;;;;;4954506;28;20163;-77
2021/04/27 12:21:37;;;;;;;2.70;1.45;;;16.80;77.60;;;;;;4954488;28;20190;-78
2021/04/27 12:24:26;;;;;;;2.92;1.95;;;17.00;76.60;;;;;;4954599;28;20265;-79
2021/04/27 12:27:09;;;;;;;1.00;0.85;;;17.00;74.80;;;;;;4955535;28;20234;-79
2021/04/27 12:29:37;;;;;;;0.43;0.43;;;16.90;75.70;;;;;;4955822;28;20179;-79
2021/04/27 12:32:13;;;;;;;1.27;1.17;;;17.10;75.60;;;;;;4955557;28;20191;-78
2021/04/27 12:35:07;;;;;;;1.10;1.00;;;17.20;74.50;;;;;;4955230;28;20166;-78
2021/04/27 12:37:36;;;;;;;0.93;0.93;;;17.20;74.20;;;;;;4954207;28;20182;-78
2021/04/27 12:40:15;;;;;;;0.98;0.95;;;17.40;74.60;;;;;;4954026;28;20206;-80
2021/04/27 12:43:08;;;;;;;0.90;0.90;;;17.30;76.40;;;;;;4955602;28;20243;-79
2021/04/27 12:45:40;;;;;;;0.45;0.45;;;17.40;76.40;;;;;;4952783;29;20182;-80
2021/04/27 12:48:07;;;;;;;2.00;1.70;;;17.40;75.70;;;;;;4955214;28;20310;-78
2021/04/27 12:50:44;;;;;;;0.70;0.70;;;17.40;75.50;;;;;;4955065;28;20588;-77
2021/04/27 12:53:10;;;;;;;0.85;0.47;;;17.40;75.40;;;;;;4955238;28;20645;-78
2021/04/27 12:55:37;;;;;;;2.42;1.38;;;17.50;74.30;;;;;;4955140;28;20250;-78
2021/04/27 12:58:15;;;;;;;3.03;1.05;;;17.50;75.30;;;;;;4955342;28;20208;-78
2021/04/27 13:00:54;;;;;;;1.42;0.50;;;17.70;75.10;;;;;;4955163;28;20218;-78
2021/04/27 13:03:23;;;;;;;1.33;1.15;;;17.70;73.90;;;;;;4953302;28;20571;-79